createdAt,value
2018-05-25T00:02:17.656Z,18.20
2018-05-25T00:04:46.017Z,18.20
2018-05-25T00:07:14.411Z,18.10
2018-05-25T00:09:42.897Z,18.20
2018-05-25T00:12:11.374Z,18.10
2018-05-25T00:14:39.853Z,18.00
2018-05-25T00:17:08.186Z,18.10
2018-05-25T00:19:36.490Z,18.10
2018-05-25T00:22:05.707Z,18.20
2018-05-25T00:24:34.187Z,18.20
2018-05-25T00:27:02.511Z,18.20
2018-05-25T00:29:31.055Z,18.20
2018-05-25T00:31:59.536Z,18.10
2018-05-25T00:34:28.008Z,18.20
2018-05-25T00:36:56.325Z,18.50
2018-05-25T00:39:24.869Z,18.50
2018-05-25T00:41:53.155Z,18.50
2018-05-25T00:44:21.626Z,18.50
2018-05-25T00:46:50.006Z,18.40
2018-05-25T00:49:18.594Z,18.40
2018-05-25T00:51:47.172Z,18.40
2018-05-25T00:54:15.596Z,18.40
2018-05-25T00:56:44.029Z,18.40
2018-05-25T00:59:12.513Z,18.50
2018-05-25T01:01:41.000Z,18.50
2018-05-25T01:04:09.415Z,18.40
2018-05-25T01:06:39.318Z,18.50
2018-05-25T01:09:07.803Z,18.50
2018-05-25T01:11:36.455Z,18.60
2018-05-25T01:14:04.847Z,18.60
2018-05-25T01:16:33.263Z,18.70
2018-05-25T01:19:01.590Z,18.70
2018-05-25T01:21:29.973Z,18.80
2018-05-25T01:23:58.446Z,18.80
2018-05-25T01:26:26.930Z,18.70
2018-05-25T01:28:55.350Z,18.70
2018-05-25T01:31:23.735Z,18.90
2018-05-25T01:33:52.985Z,19.40
2018-05-25T01:36:21.394Z,19.40
2018-05-25T01:38:49.778Z,19.60
2018-05-25T01:41:18.329Z,20.00
2018-05-25T01:43:46.640Z,20.20
2018-05-25T01:46:15.038Z,20.30
2018-05-25T01:48:43.466Z,20.50
2018-05-25T01:51:11.887Z,20.70
2018-05-25T01:53:40.318Z,20.90
2018-05-25T01:56:08.732Z,21.00
2018-05-25T01:58:37.109Z,21.00
2018-05-25T02:01:05.417Z,21.20
2018-05-25T02:03:33.937Z,21.20
2018-05-25T02:06:02.458Z,21.30
2018-05-25T02:08:31.053Z,21.20
2018-05-25T02:11:00.350Z,21.30
2018-05-25T02:13:28.995Z,21.30
2018-05-25T02:15:57.386Z,21.30
2018-05-25T02:18:26.465Z,21.30
2018-05-25T02:20:54.944Z,21.20
2018-05-25T02:23:23.425Z,21.20
2018-05-25T02:25:51.910Z,21.30
2018-05-25T02:28:20.384Z,21.40
2018-05-25T02:30:48.970Z,21.40
2018-05-25T02:33:17.450Z,21.40
2018-05-25T02:35:45.800Z,21.30
2018-05-25T02:38:14.103Z,21.40
2018-05-25T02:40:42.480Z,21.50
2018-05-25T02:43:10.964Z,21.60
2018-05-25T02:45:39.373Z,21.60
2018-05-25T02:48:07.828Z,21.70
2018-05-25T02:50:36.307Z,21.70
2018-05-25T02:53:04.685Z,21.70
2018-05-25T02:55:33.268Z,21.80
2018-05-25T02:58:01.560Z,21.80
2018-05-25T03:00:30.022Z,21.80
2018-05-25T03:02:58.428Z,21.80
2018-05-25T03:05:27.829Z,21.80
2018-05-25T03:07:56.281Z,21.70
2018-05-25T03:10:24.633Z,21.70
2018-05-25T03:12:54.066Z,21.60
2018-05-25T03:15:22.550Z,21.50
2018-05-25T03:17:51.029Z,21.40
2018-05-25T03:20:19.510Z,21.20
2018-05-25T03:22:47.873Z,21.00
2018-05-25T03:25:16.315Z,20.80
2018-05-25T03:27:44.741Z,20.70
2018-05-25T03:30:13.194Z,20.60
2018-05-25T03:32:42.425Z,20.50
2018-05-25T03:35:10.802Z,20.40
2018-05-25T03:37:39.152Z,20.40
2018-05-25T03:40:08.484Z,20.30
2018-05-25T03:42:36.961Z,20.30
2018-05-25T03:45:05.444Z,20.30
2018-05-25T03:47:34.025Z,20.20
2018-05-25T03:50:02.454Z,20.30
2018-05-25T03:52:30.817Z,20.30
2018-05-25T03:54:59.264Z,20.40
2018-05-25T03:57:27.747Z,20.50
2018-05-25T04:00:08.206Z,20.60
2018-05-25T04:02:37.003Z,20.60
2018-05-25T04:05:05.679Z,20.60
2018-05-25T04:07:34.007Z,20.50
2018-05-25T04:10:02.545Z,20.60
2018-05-25T04:12:31.019Z,20.60
2018-05-25T04:14:59.503Z,20.60
2018-05-25T04:17:27.934Z,20.70
2018-05-25T04:19:57.177Z,20.50
2018-05-25T04:22:25.659Z,20.50
2018-05-25T04:24:54.050Z,20.40
2018-05-25T04:27:22.554Z,20.40
2018-05-25T04:29:51.632Z,20.30
2018-05-25T04:32:20.099Z,20.10
2018-05-25T04:34:48.576Z,19.70
2018-05-25T04:37:17.061Z,19.40
2018-05-25T04:39:45.448Z,19.00
2018-05-25T04:42:13.806Z,18.70
2018-05-25T04:44:42.298Z,18.50
2018-05-25T04:47:10.878Z,18.50
2018-05-25T04:49:39.309Z,18.40
2018-05-25T04:52:07.865Z,18.30
2018-05-25T04:54:36.323Z,18.30
2018-05-25T04:57:05.121Z,18.20
2018-05-25T04:59:33.738Z,18.10
2018-05-25T05:02:02.275Z,18.00
2018-05-25T05:04:31.168Z,18.00
2018-05-25T05:06:59.590Z,18.00
2018-05-25T05:09:27.952Z,18.10
2018-05-25T05:11:56.514Z,18.10
2018-05-25T05:14:24.993Z,18.20
2018-05-25T05:16:53.509Z,18.30
2018-05-25T05:19:21.950Z,18.50
2018-05-25T05:21:50.431Z,18.60
2018-05-25T05:24:18.835Z,18.70
2018-05-25T05:26:47.427Z,19.10
2018-05-25T05:29:17.918Z,19.30
2018-05-25T05:31:46.401Z,19.40
2018-05-25T05:34:15.042Z,19.50
2018-05-25T05:36:44.284Z,19.70
2018-05-25T05:39:12.594Z,19.60
2018-05-25T05:41:41.147Z,19.80
2018-05-25T05:44:09.777Z,20.00
2018-05-25T05:46:38.469Z,20.30
2018-05-25T05:49:07.715Z,20.50
2018-05-25T05:51:36.205Z,20.50
2018-05-25T05:54:04.788Z,20.70
2018-05-25T05:56:33.465Z,20.70
2018-05-25T05:59:01.844Z,20.80
2018-05-25T06:01:30.324Z,20.90
2018-05-25T06:03:58.808Z,21.00
2018-05-25T06:06:27.287Z,21.10
2018-05-25T06:08:55.710Z,21.10
2018-05-25T06:11:24.037Z,21.20
2018-05-25T06:13:52.529Z,21.40
2018-05-25T06:16:20.942Z,21.40
2018-05-25T06:18:49.483Z,21.40
2018-05-25T06:21:17.861Z,21.40
2018-05-25T06:23:46.461Z,21.50
2018-05-25T06:26:15.747Z,21.70
2018-05-25T06:28:44.380Z,21.70
2018-05-25T06:31:12.861Z,21.90
2018-05-25T06:33:41.346Z,22.10
2018-05-25T06:36:10.427Z,22.60
2018-05-25T06:38:38.868Z,22.60
2018-05-25T06:41:07.348Z,22.70
2018-05-25T06:43:35.829Z,22.80
2018-05-25T06:46:04.253Z,22.80
2018-05-25T06:48:34.364Z,22.70
2018-05-25T06:51:02.863Z,22.70
2018-05-25T06:53:32.216Z,22.40
2018-05-25T06:56:00.599Z,22.30
2018-05-25T06:58:29.028Z,22.40
2018-05-25T07:00:58.175Z,22.70
2018-05-25T07:03:27.199Z,22.70
2018-05-25T07:05:55.639Z,22.80
2018-05-25T07:08:24.122Z,22.90
2018-05-25T07:10:52.838Z,23.00
2018-05-25T07:13:21.232Z,22.90
2018-05-25T07:15:49.770Z,23.00
2018-05-25T07:18:18.189Z,23.30
2018-05-25T07:20:46.625Z,23.60
2018-05-25T07:23:15.056Z,23.60
2018-05-25T07:25:44.139Z,23.80
2018-05-25T07:28:12.584Z,23.80
2018-05-25T07:30:40.964Z,23.80
2018-05-25T07:33:09.267Z,24.30
2018-05-25T07:35:38.376Z,24.70
2018-05-25T07:38:06.713Z,24.80
2018-05-25T07:40:35.292Z,24.90
2018-05-25T07:43:03.775Z,24.90
2018-05-25T07:45:32.093Z,25.10
2018-05-25T07:48:00.415Z,25.40
2018-05-25T07:50:29.782Z,25.30
2018-05-25T07:52:59.429Z,25.20
2018-05-25T07:55:28.028Z,25.20
2018-05-25T07:57:56.419Z,25.30
2018-05-25T08:00:24.883Z,25.40
2018-05-25T08:02:53.375Z,25.90
